Time;durP1;ratioP1;P1;durP2;ratioP2;P2;SDS_P1;SDS_P2;PMS_P1;PMS_P2;Temp;Humidity;BMP_temperature;BMP_pressure;BME280_temperature;BME280_humidity;BME280_pressure;Samples;Min_cycle;Max_cycle;Signal;HPM_P1;HPM_P2
2022/10/06 00:01:26;;;;;;;5.55;1.95;;;14.00;75.90;;;;;;5018056;28;20038;-77
2022/10/06 00:03:52;;;;;;;3.25;1.52;;;13.90;76.00;;;;;;5017782;28;20033;-77
2022/10/06 00:06:18;;;;;;;5.35;2.22;;;13.90;76.40;;;;;;5018158;28;20029;-77
2022/10/06 00:08:45;;;;;;;8.52;2.95;;;13.90;76.40;;;;;;5012545;28;20026;-77
2022/10/06 00:11:12;;;;;;;5.13;2.13;;;13.90;76.30;;;;;;4998245;28;20048;-77
2022/10/06 00:13:38;;;;;;;6.65;1.63;;;13.90;76.20;;;;;;4998508;28;20034;-77
2022/10/06 00:16:13;;;;;;;8.75;1.85;;;13.80;76.30;;;;;;4996597;28;20034;-77
2022/10/06 00:18:39;;;;;;;4.90;1.70;;;13.80;76.20;;;;;;4998549;28;20131;-77
2022/10/06 00:21:05;;;;;;;4.97;2.03;;;13.80;76.30;;;;;;4998198;28;20022;-77
2022/10/06 00:23:31;;;;;;;4.95;1.90;;;13.70;76.60;;;;;;5012056;28;20034;-77
2022/10/06 00:25:57;;;;;;;7.53;2.00;;;13.70;76.40;;;;;;4996515;28;20106;-77
2022/10/06 00:28:23;;;;;;;2.90;1.63;;;13.80;76.30;;;;;;4998123;28;20576;-77
2022/10/06 00:30:52;;;;;;;7.97;1.80;;;13.70;76.10;;;;;;4998109;28;20034;-77
2022/10/06 00:33:18;;;;;;;6.50;2.22;;;13.70;76.60;;;;;;4998210;28;20018;-77
2022/10/06 00:35:44;;;;;;;6.05;2.00;;;13.70;76.50;;;;;;5014366;28;20512;-77
2022/10/06 00:38:11;;;;;;;7.22;1.85;;;13.70;76.50;;;;;;5009189;28;20026;-77
2022/10/06 00:40:46;;;;;;;6.72;1.67;;;13.70;76.50;;;;;;4998144;28;20097;-77
2022/10/06 00:43:43;;;;;;;6.78;2.30;;;13.70;76.40;;;;;;4987417;28;20081;-77
2022/10/06 00:46:13;;;;;;;6.35;2.00;;;13.70;76.30;;;;;;4998308;28;20034;-77
2022/10/06 00:48:39;;;;;;;;;;;13.60;76.20;;;;;;4998336;28;20038;-77
2022/10/06 00:51:05;;;;;;;7.88;2.05;;;13.60;76.60;;;;;;4997707;28;19906;-77
2022/10/06 00:53:31;;;;;;;9.70;2.30;;;13.60;76.40;;;;;;4997807;28;20434;-77
2022/10/06 00:55:57;;;;;;;9.82;2.17;;;13.60;76.40;;;;;;5015782;28;20040;-77
2022/10/06 00:58:23;;;;;;;4.18;1.85;;;13.60;76.30;;;;;;5016906;28;20081;-76
2022/10/06 01:00:54;;;;;;;5.95;2.13;;;13.60;76.30;;;;;;5016944;28;20026;-77
2022/10/06 01:03:26;;;;;;;7.55;2.45;;;13.60;76.10;;;;;;5016856;28;20084;-77
2022/10/06 01:05:53;;;;;;;6.00;2.20;;;13.50;76.20;;;;;;4997728;28;20098;-77
2022/10/06 01:08:21;;;;;;;7.78;1.98;;;13.50;76.30;;;;;;4997511;28;20034;-77
2022/10/06 01:10:47;;;;;;;7.85;1.98;;;13.50;76.30;;;;;;5006315;28;20068;-77
2022/10/06 01:13:15;;;;;;;8.70;2.35;;;13.50;76.60;;;;;;5016515;28;20053;-77
2022/10/06 01:15:49;;;;;;;8.43;2.65;;;13.40;76.60;;;;;;4997124;28;20033;-77
2022/10/06 01:18:17;;;;;;;6.13;1.67;;;13.50;76.60;;;;;;4979533;28;20026;-77
2022/10/06 01:20:51;;;;;;;11.60;2.20;;;13.50;76.30;;;;;;4995870;28;20034;-77
2022/10/06 01:23:18;;;;;;;13.27;2.70;;;13.50;76.70;;;;;;5009773;28;20044;-77
2022/10/06 01:25:44;;;;;;;6.57;1.70;;;13.50;76.60;;;;;;5016406;28;20412;-77
2022/10/06 01:28:11;;;;;;;8.25;2.30;;;13.50;76.40;;;;;;5016133;28;20041;-77
2022/10/06 01:30:51;;;;;;;7.43;2.03;;;13.40;76.70;;;;;;5016583;28;20099;-77
2022/10/06 01:33:18;;;;;;;10.43;2.17;;;13.40;76.60;;;;;;4999005;28;20029;-77
2022/10/06 01:35:51;;;;;;;4.82;2.20;;;13.40;76.70;;;;;;5015931;28;20080;-77
2022/10/06 01:38:18;;;;;;;8.38;2.17;;;13.40;76.70;;;;;;5015945;28;20057;-77
2022/10/06 01:40:44;;;;;;;6.78;1.83;;;13.40;76.80;;;;;;5016506;28;20101;-78
2022/10/06 01:43:11;;;;;;;9.40;1.77;;;13.40;76.70;;;;;;4998690;28;20494;-77
2022/10/06 01:45:37;;;;;;;8.85;1.77;;;13.40;76.50;;;;;;5016397;28;20072;-77
2022/10/06 01:48:02;;;;;;;5.05;2.10;;;13.30;76.50;;;;;;5015648;28;20026;-77
2022/10/06 01:50:28;;;;;;;12.85;2.30;;;13.30;76.50;;;;;;5015757;28;20033;-77
2022/10/06 01:52:56;;;;;;;4.97;1.73;;;13.30;76.60;;;;;;5015763;28;20489;-77
2022/10/06 01:55:24;;;;;;;8.68;2.22;;;13.30;76.70;;;;;;5015817;28;20527;-77
2022/10/06 01:57:50;;;;;;;4.00;2.00;;;13.30;76.60;;;;;;5016109;28;20022;-77
2022/10/06 02:00:17;;;;;;;5.90;2.28;;;13.20;76.40;;;;;;5016250;28;20038;-77
2022/10/06 02:02:43;;;;;;;4.80;1.63;;;13.20;76.20;;;;;;5000013;28;20066;-77
2022/10/06 02:05:09;;;;;;;12.15;1.88;;;13.20;76.70;;;;;;4996473;28;20393;-77
2022/10/06 02:07:35;;;;;;;8.10;2.10;;;13.20;76.70;;;;;;4996408;28;20026;-77
2022/10/06 02:10:01;;;;;;;5.75;1.85;;;13.10;76.40;;;;;;5006456;28;20536;-77
2022/10/06 02:12:28;;;;;;;7.00;2.85;;;13.10;76.60;;;;;;5015949;28;20022;-77
2022/10/06 02:14:54;;;;;;;9.52;1.95;;;13.10;76.70;;;;;;5015457;28;20076;-77
2022/10/06 02:17:21;;;;;;;6.43;2.30;;;13.00;76.80;;;;;;5014317;28;20112;-77
2022/10/06 02:19:47;;;;;;;5.97;1.50;;;13.10;76.80;;;;;;5006176;28;20033;-77
2022/10/06 02:22:12;;;;;;;9.98;1.75;;;13.10;76.70;;;;;;5000044;28;20026;-77
2022/10/06 02:24:38;;;;;;;3.42;1.48;;;13.00;76.70;;;;;;5015654;28;20136;-77
2022/10/06 02:27:04;;;;;;;7.18;1.85;;;13.00;76.90;;;;;;5011808;28;20034;-77
2022/10/06 02:29:30;;;;;;;7.13;2.33;;;13.00;76.90;;;;;;4978465;28;20076;-76
2022/10/06 02:31:56;;;;;;;2.95;1.60;;;12.90;76.50;;;;;;4995971;28;20105;-77
2022/10/06 02:34:21;;;;;;;6.93;1.95;;;12.90;76.60;;;;;;4978014;28;20023;-77
2022/10/06 02:36:47;;;;;;;3.75;1.52;;;12.90;76.70;;;;;;5007045;28;20105;-77
2022/10/06 02:39:12;;;;;;;8.23;2.10;;;12.90;76.90;;;;;;4997872;28;20030;-77
2022/10/06 02:41:39;;;;;;;8.85;1.85;;;12.90;76.90;;;;;;5015907;28;20069;-77
2022/10/06 02:44:04;;;;;;;7.32;2.10;;;12.90;76.90;;;;;;5015024;28;20033;-77
2022/10/06 02:46:31;;;;;;;9.90;1.98;;;12.80;76.80;;;;;;5015514;28;20046;-77
2022/10/06 02:48:57;;;;;;;9.20;2.58;;;12.80;76.60;;;;;;5015401;28;20388;-77
2022/10/06 02:51:23;;;;;;;6.90;2.30;;;12.80;76.80;;;;;;5014416;28;20093;-77
2022/10/06 02:53:50;;;;;;;5.43;2.30;;;12.80;77.00;;;;;;5015618;28;20438;-77
2022/10/06 02:56:21;;;;;;;7.43;1.90;;;12.80;76.80;;;;;;5014985;28;20029;-77
2022/10/06 02:58:48;;;;;;;5.90;1.95;;;12.80;76.90;;;;;;5015465;28;20018;-77
2022/10/06 03:01:25;;;;;;;5.28;2.00;;;12.80;76.90;;;;;;4994381;28;20022;-77
2022/10/06 03:03:50;;;;;;;7.03;2.17;;;12.80;76.90;;;;;;4999963;28;20032;-77
2022/10/06 03:06:21;;;;;;;6.47;2.03;;;12.80;77.00;;;;;;4999718;28;20093;-77
2022/10/06 03:08:52;;;;;;;9.40;2.70;;;12.70;76.90;;;;;;4999730;28;20062;-77
2022/10/06 03:11:19;;;;;;;6.65;2.40;;;12.70;76.80;;;;;;4999672;28;20460;-77
2022/10/06 03:13:45;;;;;;;8.38;2.33;;;12.70;76.80;;;;;;4982021;28;20113;-77
2022/10/06 03:16:18;;;;;;;9.77;1.98;;;12.70;76.80;;;;;;5017633;28;20109;-77
2022/10/06 03:18:50;;;;;;;3.72;1.58;;;12.70;76.70;;;;;;5019177;28;20022;-77
2022/10/06 03:21:17;;;;;;;7.00;1.65;;;12.60;76.70;;;;;;5002180;28;20374;-77
2022/10/06 03:23:44;;;;;;;7.45;1.80;;;12.60;76.70;;;;;;4997773;28;20029;-77
2022/10/06 03:26:11;;;;;;;2.78;1.52;;;12.50;76.80;;;;;;5001302;28;20547;-77
2022/10/06 03:28:39;;;;;;;9.60;2.03;;;12.50;76.80;;;;;;5017888;28;20420;-77
2022/10/06 03:31:06;;;;;;;6.80;1.77;;;12.50;76.70;;;;;;5018688;28;20742;-77
2022/10/06 03:33:33;;;;;;;6.85;1.67;;;12.50;76.80;;;;;;5018825;28;20428;-77
2022/10/06 03:36:09;;;;;;;5.82;1.85;;;12.50;76.90;;;;;;5001168;28;20026;-76
2022/10/06 03:38:35;;;;;;;9.18;1.85;;;12.50;76.70;;;;;;4988866;28;20051;-77
2022/10/06 03:41:02;;;;;;;5.10;1.55;;;12.50;76.70;;;;;;4998848;28;20034;-77
2022/10/06 03:43:28;;;;;;;6.13;2.03;;;12.50;76.50;;;;;;4999666;28;20125;-77
2022/10/06 03:45:59;;;;;;;5.05;1.70;;;12.50;76.50;;;;;;4998912;28;20062;-77
2022/10/06 03:48:26;;;;;;;4.70;1.40;;;12.40;76.60;;;;;;5002059;28;20034;-77
2022/10/06 03:50:59;;;;;;;6.80;1.98;;;12.40;76.80;;;;;;5000780;28;20140;-75
2022/10/06 03:53:27;;;;;;;9.05;1.92;;;12.40;76.90;;;;;;5013466;28;20022;-76
2022/10/06 03:56:04;;;;;;;7.93;1.92;;;12.40;76.80;;;;;;4998677;28;20049;-75
2022/10/06 03:58:31;;;;;;;7.00;1.58;;;12.30;76.90;;;;;;4997196;28;20022;-76
2022/10/06 04:01:01;;;;;;;7.00;1.33;;;12.30;76.60;;;;;;5014818;28;20121;-76
2022/10/06 04:03:27;;;;;;;3.20;1.33;;;12.30;76.70;;;;;;5000645;28;20026;-75
2022/10/06 04:05:57;;;;;;;5.43;1.73;;;12.30;76.80;;;;;;5016237;28;20038;-76
2022/10/06 04:08:24;;;;;;;3.08;1.63;;;12.30;76.80;;;;;;5017525;28;20033;-76
2022/10/06 04:10:50;;;;;;;4.90;1.50;;;12.30;76.90;;;;;;5017602;28;20041;-77
2022/10/06 04:13:19;;;;;;;4.65;1.70;;;12.30;77.00;;;;;;5017407;28;20651;-79
2022/10/06 04:15:46;;;;;;;7.85;2.03;;;12.20;77.10;;;;;;5018028;28;20018;-79
2022/10/06 04:18:12;;;;;;;7.97;2.10;;;12.20;76.80;;;;;;5011764;28;20034;-79
2022/10/06 04:20:38;;;;;;;6.40;1.88;;;12.20;76.80;;;;;;5010097;28;20076;-79
2022/10/06 04:23:04;;;;;;;4.45;1.90;;;12.20;76.60;;;;;;5017807;28;20376;-80
2022/10/06 04:25:30;;;;;;;4.40;1.83;;;12.20;76.60;;;;;;5017091;28;20053;-79
2022/10/06 04:27:56;;;;;;;3.42;1.50;;;12.20;76.70;;;;;;4999441;28;20022;-82
2022/10/06 04:30:23;;;;;;;3.33;1.70;;;12.10;76.70;;;;;;5003116;28;20066;-87
2022/10/06 04:32:49;;;;;;;10.25;2.88;;;12.10;76.80;;;;;;4996632;28;20134;-86
2022/10/06 04:35:19;;;;;;;6.15;2.00;;;12.10;76.60;;;;;;4982671;28;20056;-86
2022/10/06 04:37:45;;;;;;;7.33;1.97;;;12.10;76.50;;;;;;4996952;28;20019;-86
2022/10/06 04:40:11;;;;;;;5.60;1.90;;;12.10;76.60;;;;;;4997914;28;20182;-86
2022/10/06 04:42:37;;;;;;;3.65;1.70;;;12.10;76.70;;;;;;5008459;28;20026;-86
2022/10/06 04:45:04;;;;;;;3.80;1.70;;;12.00;76.60;;;;;;4999825;28;20033;-83
2022/10/06 04:47:30;;;;;;;5.18;2.28;;;12.10;76.40;;;;;;5002044;28;20034;-88
2022/10/06 04:49:55;;;;;;;6.80;1.90;;;12.00;76.60;;;;;;5017562;28;20365;-84
2022/10/06 04:52:23;;;;;;;3.30;1.80;;;12.00;76.60;;;;;;5001266;28;20029;-85
2022/10/06 04:54:49;;;;;;;8.02;2.38;;;11.90;76.60;;;;;;5015553;28;20045;-83
2022/10/06 04:57:14;;;;;;;5.40;2.33;;;12.00;76.40;;;;;;5015645;28;20424;-84
2022/10/06 05:02:24;;;;;;;3.97;1.77;;;12.00;76.30;;;;;;5002681;28;20425;-86
2022/10/06 05:04:50;;;;;;;4.63;2.15;;;11.90;76.40;;;;;;5011025;28;20077;-86
2022/10/06 05:07:16;;;;;;;6.40;2.05;;;11.90;76.70;;;;;;5003916;28;20030;-84
2022/10/06 05:09:41;;;;;;;8.43;2.60;;;11.90;76.70;;;;;;5002610;28;20125;-86
2022/10/06 05:12:09;;;;;;;5.20;1.63;;;11.90;76.50;;;;;;5005016;28;20114;-85
2022/10/06 05:14:55;;;;;;;4.20;2.10;;;11.90;76.40;;;;;;5002043;28;20077;-83
2022/10/06 05:17:20;;;;;;;8.57;2.17;;;11.80;76.40;;;;;;4987062;28;20034;-85
2022/10/06 05:19:46;;;;;;;6.43;2.00;;;11.80;76.70;;;;;;4998961;28;20056;-86
2022/10/06 05:22:12;;;;;;;6.60;1.98;;;11.80;76.70;;;;;;5016219;28;20081;-84
2022/10/06 05:24:37;;;;;;;10.52;2.20;;;11.80;76.70;;;;;;5007097;28;20166;-82
2022/10/06 05:27:05;;;;;;;8.23;2.47;;;11.80;76.50;;;;;;4989181;28;20034;-82
2022/10/06 05:29:32;;;;;;;7.63;2.35;;;11.70;76.10;;;;;;5005595;28;20031;-82
2022/10/06 05:32:00;;;;;;;14.50;3.50;;;11.70;76.30;;;;;;5005656;28;20036;-82
2022/10/06 05:34:26;;;;;;;9.05;2.20;;;11.70;76.10;;;;;;5005286;28;20042;-82
2022/10/06 05:36:52;;;;;;;5.03;1.98;;;11.60;76.50;;;;;;4989362;28;20602;-80
2022/10/06 05:39:18;;;;;;;6.90;2.33;;;11.60;76.60;;;;;;5007701;28;20049;-89
2022/10/06 05:41:43;;;;;;;6.93;2.63;;;11.70;76.50;;;;;;5005465;28;20033;-88
2022/10/06 05:44:09;;;;;;;9.75;2.67;;;11.60;76.50;;;;;;4993375;28;20099;-89
2022/10/06 05:46:42;;;;;;;4.55;1.90;;;11.60;76.60;;;;;;5110490;27;20396;-90
2022/10/06 05:49:09;;;;;;;6.22;2.22;;;11.60;76.70;;;;;;5112931;28;20085;-88
2022/10/06 05:51:36;;;;;;;6.75;3.17;;;11.60;76.70;;;;;;5111239;28;20022;-89
2022/10/06 05:54:02;;;;;;;10.80;2.40;;;11.50;76.50;;;;;;5111959;28;20024;-90
2022/10/06 05:56:32;;;;;;;3.47;1.70;;;11.50;76.30;;;;;;5111831;28;20133;-89
2022/10/06 05:58:59;;;;;;;6.38;2.17;;;11.50;76.70;;;;;;5111889;28;20518;-90
2022/10/06 06:01:27;;;;;;;6.18;2.38;;;11.50;76.60;;;;;;5111833;28;20043;-90
2022/10/06 06:03:56;;;;;;;7.30;2.45;;;11.50;76.60;;;;;;5109169;28;20587;-90
2022/10/06 06:06:32;;;;;;;5.03;2.55;;;11.50;76.50;;;;;;5111873;28;20055;-85
2022/10/06 06:09:09;;;;;;;5.35;2.53;;;11.50;76.60;;;;;;5110660;28;20027;-88
2022/10/06 06:11:59;;;;;;;6.53;2.20;;;11.50;76.60;;;;;;5109480;28;20055;-87
2022/10/06 06:17:10;;;;;;;5.45;2.45;;;11.40;76.50;;;;;;5112705;28;20035;-90
2022/10/06 06:19:36;;;;;;;8.52;2.65;;;11.30;76.70;;;;;;5110822;28;20548;-87
2022/10/06 06:22:01;;;;;;;9.55;2.30;;;11.30;76.90;;;;;;5113033;28;20040;-89
2022/10/06 06:24:27;;;;;;;7.32;2.60;;;11.30;77.00;;;;;;5098803;28;20628;-89
2022/10/06 06:26:53;;;;;;;6.13;2.65;;;11.40;77.10;;;;;;5090903;28;20089;-88
2022/10/06 06:29:18;;;;;;;6.70;2.72;;;11.40;76.80;;;;;;5098845;28;20563;-89
2022/10/06 06:31:45;;;;;;;5.43;2.58;;;11.40;77.00;;;;;;5092267;28;20058;-89
2022/10/06 06:34:11;;;;;;;4.72;2.45;;;11.50;76.90;;;;;;5092416;28;20578;-89
2022/10/06 06:36:43;;;;;;;7.78;2.75;;;11.40;76.70;;;;;;5092581;28;20028;-88
2022/10/06 06:39:11;;;;;;;5.13;2.78;;;11.40;76.40;;;;;;5091250;28;20020;-88
2022/10/06 06:41:44;;;;;;;7.10;2.25;;;11.50;76.40;;;;;;5091733;28;20036;-88
2022/10/06 06:44:12;;;;;;;8.23;2.35;;;11.40;76.70;;;;;;5090928;28;20131;-89
2022/10/06 06:46:48;;;;;;;6.25;2.95;;;11.50;76.60;;;;;;5091826;28;20041;-88
2022/10/06 06:49:15;;;;;;;11.45;2.65;;;11.40;77.00;;;;;;5090728;28;20086;-90
2022/10/06 06:51:43;;;;;;;4.10;2.30;;;11.40;77.00;;;;;;5091027;28;20145;-89
2022/10/06 06:54:10;;;;;;;5.05;2.35;;;11.50;77.00;;;;;;5092366;28;20059;-89
2022/10/06 06:56:37;;;;;;;8.60;2.47;;;11.50;77.00;;;;;;5094618;28;20098;-89
2022/10/06 06:59:09;;;;;;;7.13;2.33;;;11.50;77.20;;;;;;5089306;28;20024;-89
2022/10/06 07:01:36;;;;;;;7.03;2.42;;;11.50;77.30;;;;;;5077135;28;20078;-88
2022/10/06 07:04:02;;;;;;;5.50;2.38;;;11.50;77.00;;;;;;5077083;28;20103;-89
2022/10/06 07:06:29;;;;;;;4.53;2.55;;;11.60;76.90;;;;;;5077204;28;20024;-91
2022/10/06 07:08:57;;;;;;;9.82;2.90;;;11.60;77.10;;;;;;5077191;28;20028;-89
2022/10/06 07:11:31;;;;;;;6.47;2.60;;;11.60;77.20;;;;;;5083659;28;20122;-89
2022/10/06 07:14:02;;;;;;;7.28;2.55;;;11.70;77.40;;;;;;5076839;28;20394;-88
2022/10/06 07:25:11;;;;;;;9.30;2.92;;;11.90;77.10;;;;;;5117411;28;20066;-88
2022/10/06 07:27:46;;;;;;;8.90;3.20;;;11.90;77.60;;;;;;5077167;28;20027;-88
2022/10/06 07:30:24;;;;;;;10.93;3.30;;;12.00;77.70;;;;;;5077399;28;20020;-88
2022/10/06 07:32:51;;;;;;;8.35;3.50;;;12.00;78.00;;;;;;5077978;28;20024;-88
2022/10/06 07:35:19;;;;;;;8.45;3.67;;;12.10;78.10;;;;;;5078464;28;20077;-88
2022/10/06 07:37:45;;;;;;;11.80;4.07;;;12.10;78.20;;;;;;5078407;28;20509;-87
2022/10/06 07:40:11;;;;;;;7.25;2.70;;;12.20;78.10;;;;;;5078801;28;20033;-86
2022/10/06 07:42:48;;;;;;;7.25;3.15;;;12.30;78.30;;;;;;5077000;28;20029;-88
2022/10/06 07:45:37;;;;;;;5.95;3.00;;;12.30;78.60;;;;;;5077421;28;20052;-87
2022/10/06 07:48:22;;;;;;;9.77;3.10;;;12.40;78.70;;;;;;5076325;28;20020;-88
2022/10/06 07:50:49;;;;;;;4.50;2.75;;;12.40;78.90;;;;;;5076275;28;20099;-87
2022/10/06 07:53:16;;;;;;;5.72;2.58;;;12.50;78.90;;;;;;5091628;28;20032;-89
2022/10/06 07:55:45;;;;;;;5.53;2.60;;;12.50;78.80;;;;;;5076320;28;20017;-87
2022/10/06 07:58:22;;;;;;;10.55;2.63;;;12.60;78.60;;;;;;5076138;28;20035;-88
2022/10/06 08:00:51;;;;;;;3.95;2.33;;;12.60;78.40;;;;;;5076205;28;20024;-88
2022/10/06 08:03:17;;;;;;;5.40;2.75;;;12.70;78.50;;;;;;5075783;28;20037;-88
2022/10/06 08:05:48;;;;;;;6.20;2.33;;;12.70;78.90;;;;;;5077158;28;20032;-89
2022/10/06 08:08:15;;;;;;;6.85;2.65;;;12.70;78.60;;;;;;5074766;28;20363;-88
2022/10/06 08:10:41;;;;;;;9.05;2.67;;;12.80;79.40;;;;;;5080841;28;20024;-87
2022/10/06 08:13:07;;;;;;;8.00;2.97;;;13.00;79.20;;;;;;5096230;28;20089;-88
2022/10/06 08:15:33;;;;;;;11.00;2.65;;;13.00;79.00;;;;;;5097724;28;20497;-87
2022/10/06 08:18:00;;;;;;;9.93;2.53;;;13.00;79.10;;;;;;5097466;28;20035;-87
2022/10/06 08:20:26;;;;;;;4.18;2.05;;;13.10;78.90;;;;;;5096072;28;20078;-88
2022/10/06 08:22:53;;;;;;;10.85;2.47;;;13.10;79.10;;;;;;5105563;28;20036;-87
2022/10/06 08:25:19;;;;;;;6.90;2.33;;;13.20;78.90;;;;;;5104306;28;20035;-87
2022/10/06 08:27:44;;;;;;;13.70;3.17;;;13.20;78.90;;;;;;5093210;28;20102;-88
2022/10/06 08:30:11;;;;;;;11.23;3.55;;;13.30;78.90;;;;;;5077480;28;20029;-86
2022/10/06 08:32:40;;;;;;;10.90;2.55;;;13.30;79.20;;;;;;5094969;28;20055;-87
2022/10/06 08:35:06;;;;;;;8.02;2.92;;;13.30;79.20;;;;;;5094709;28;20036;-88
2022/10/06 08:37:31;;;;;;;5.45;2.35;;;13.40;79.30;;;;;;5097104;28;20057;-88
2022/10/06 08:39:57;;;;;;;7.68;2.70;;;13.50;80.30;;;;;;5095691;28;20038;-89
2022/10/06 08:42:36;;;;;;;7.80;3.03;;;13.50;79.90;;;;;;5089051;28;20020;-89
2022/10/06 08:45:04;;;;;;;7.72;2.92;;;13.60;80.20;;;;;;5075127;28;20052;-88
2022/10/06 08:47:34;;;;;;;12.40;2.40;;;13.70;80.10;;;;;;5076470;28;20028;-89
2022/10/06 08:50:02;;;;;;;8.40;2.85;;;13.70;79.70;;;;;;5076485;28;20034;-87
2022/10/06 08:52:28;;;;;;;7.70;2.38;;;13.70;79.80;;;;;;5075392;28;20032;-88
2022/10/06 08:55:12;;;;;;;10.75;2.60;;;13.80;79.80;;;;;;5076745;28;20036;-89
2022/10/06 08:58:01;;;;;;;7.07;2.67;;;13.80;80.40;;;;;;5092435;28;20082;-89
2022/10/06 09:00:32;;;;;;;8.05;3.05;;;13.90;80.00;;;;;;5095689;28;20032;-90
2022/10/06 09:02:59;;;;;;;8.73;2.53;;;14.00;79.70;;;;;;5094657;28;20122;-89
2022/10/06 09:05:28;;;;;;;10.60;2.33;;;14.00;79.50;;;;;;5096392;28;20107;-89
2022/10/06 09:08:18;;;;;;;7.63;2.33;;;14.10;80.30;;;;;;5095585;28;20472;-88
2022/10/06 09:11:13;;;;;;;7.85;2.35;;;14.10;79.80;;;;;;5094610;28;20522;-90
2022/10/06 09:13:48;;;;;;;9.48;2.55;;;14.20;80.50;;;;;;5093874;28;20068;-89
2022/10/06 09:16:18;;;;;;;8.35;2.50;;;14.30;79.40;;;;;;5096527;28;20024;-89
2022/10/06 09:18:50;;;;;;;;;;;14.30;80.20;;;;;;5096341;28;20081;-90
2022/10/06 09:21:18;;;;;;;6.45;2.55;;;14.40;79.40;;;;;;5094178;28;19916;-89
2022/10/06 09:23:55;;;;;;;4.82;2.00;;;14.40;78.60;;;;;;5112007;28;20027;-89
2022/10/06 09:26:27;;;;;;;10.90;2.17;;;14.50;78.10;;;;;;5116746;28;20023;-89
2022/10/06 09:28:54;;;;;;;9.10;2.05;;;14.60;78.00;;;;;;5115471;28;20027;-89
2022/10/06 09:31:37;;;;;;;8.65;1.85;;;14.60;77.90;;;;;;5092429;28;20092;-89
2022/10/06 09:34:19;;;;;;;7.97;1.83;;;14.70;77.20;;;;;;5091654;28;20814;-89
2022/10/06 09:37:09;;;;;;;6.35;1.38;;;14.70;77.70;;;;;;5091182;28;20052;-89
2022/10/06 09:39:40;;;;;;;11.45;1.60;;;14.80;78.10;;;;;;5075748;28;20048;-90
2022/10/06 09:42:27;;;;;;;6.45;1.50;;;14.80;77.50;;;;;;5076068;28;20754;-89
2022/10/06 09:45:04;;;;;;;8.73;1.38;;;14.80;77.40;;;;;;5074450;28;20043;-89
2022/10/06 09:47:38;;;;;;;9.18;1.85;;;14.90;77.80;;;;;;5074501;28;20017;-88
2022/10/06 09:50:14;;;;;;;8.13;1.83;;;15.00;77.70;;;;;;5091178;28;20054;-90
2022/10/06 09:53:04;;;;;;;9.02;1.45;;;15.10;77.90;;;;;;5075156;28;20035;-91
2022/10/06 09:55:40;;;;;;;5.80;1.17;;;15.20;77.00;;;;;;5074572;28;20059;-89
2022/10/06 09:58:38;;;;;;;15.25;3.08;;;15.20;77.20;;;;;;5074760;28;20033;-89
2022/10/06 10:01:07;;;;;;;12.75;1.65;;;15.30;76.60;;;;;;5074137;28;20036;-88
2022/10/06 10:04:05;;;;;;;6.00;1.67;;;15.40;76.00;;;;;;5076178;28;20103;-90
2022/10/06 10:06:36;;;;;;;11.32;1.85;;;15.60;73.90;;;;;;5063701;28;20483;-89
2022/10/06 10:09:20;;;;;;;;;;;15.70;73.30;;;;;;5079181;28;20035;-91
2022/10/06 10:14:46;;;;;;;10.35;1.65;;;15.70;73.00;;;;;;5085124;28;20563;-90
2022/10/06 10:17:36;;;;;;;9.50;1.80;;;15.80;73.80;;;;;;5094436;28;20501;-90
2022/10/06 10:20:16;;;;;;;5.25;1.42;;;15.80;73.70;;;;;;5096066;28;20119;-89
2022/10/06 10:22:45;;;;;;;8.05;1.25;;;15.80;73.90;;;;;;5088052;28;20025;-89
2022/10/06 10:25:48;;;;;;;3.55;1.40;;;15.80;73.80;;;;;;5073996;28;20511;-88
2022/10/06 10:28:17;;;;;;;8.65;1.42;;;15.90;74.00;;;;;;5074584;28;20116;-89
2022/10/06 10:31:10;;;;;;;10.52;1.95;;;16.00;71.90;;;;;;5095028;28;20027;-89
2022/10/06 10:33:49;;;;;;;3.30;1.35;;;16.00;72.10;;;;;;5088138;28;20056;-90
2022/10/06 10:36:17;;;;;;;9.67;1.50;;;16.20;71.20;;;;;;5078579;28;20039;-90
2022/10/06 10:38:46;;;;;;;5.78;1.10;;;16.20;71.00;;;;;;5078356;28;20120;-88
2022/10/06 10:41:29;;;;;;;8.93;1.27;;;16.30;71.30;;;;;;5078754;28;20028;-89
2022/10/06 10:44:03;;;;;;;7.60;1.70;;;16.40;71.40;;;;;;5097025;28;20032;-91
2022/10/06 10:46:33;;;;;;;7.30;1.38;;;16.60;70.50;;;;;;5098577;28;20055;-90
2022/10/06 10:49:17;;;;;;;9.30;1.55;;;16.70;69.90;;;;;;5097655;28;20008;-91
2022/10/06 10:51:51;;;;;;;9.15;1.30;;;16.80;70.50;;;;;;5081710;28;20032;-90
2022/10/06 10:54:38;;;;;;;7.63;1.40;;;16.90;69.40;;;;;;5092448;28;20359;-91
2022/10/06 10:57:11;;;;;;;3.92;0.95;;;17.00;68.80;;;;;;5098811;28;20028;-88
2022/10/06 10:59:51;;;;;;;3.55;1.05;;;17.20;66.10;;;;;;5079291;28;20025;-91
2022/10/06 11:02:20;;;;;;;;;;;17.20;65.40;;;;;;5078037;28;20205;-90
2022/10/06 11:04:50;;;;;;;6.68;0.88;;;17.20;63.80;;;;;;5077901;28;19912;-91
2022/10/06 11:07:27;;;;;;;11.00;1.50;;;17.30;64.40;;;;;;5079294;28;20470;-88
2022/10/06 11:10:14;;;;;;;3.97;0.82;;;17.30;65.10;;;;;;5078902;28;20024;-89
2022/10/06 11:13:14;;;;;;;4.53;0.90;;;17.30;64.00;;;;;;5078975;28;20039;-91
2022/10/06 11:15:45;;;;;;;7.20;1.25;;;17.30;63.20;;;;;;5097931;28;20036;-89
2022/10/06 11:18:14;;;;;;;9.32;1.52;;;17.30;63.10;;;;;;5098343;28;20032;-92
2022/10/06 11:20:53;;;;;;;5.90;1.02;;;17.30;60.50;;;;;;5097498;28;20028;-91
2022/10/06 11:23:53;;;;;;;4.55;0.60;;;17.30;60.40;;;;;;5105094;28;20034;-91
2022/10/06 11:26:55;;;;;;;4.13;0.82;;;17.30;58.10;;;;;;5098759;28;20027;-92
2022/10/06 11:29:37;;;;;;;6.93;1.10;;;17.30;60.00;;;;;;5098071;28;20032;-90
2022/10/06 11:32:23;;;;;;;2.33;0.77;;;17.40;60.70;;;;;;5099534;28;20628;-92
2022/10/06 11:34:50;;;;;;;9.07;1.77;;;17.40;59.90;;;;;;5083501;28;20029;-91
2022/10/06 11:37:21;;;;;;;8.73;1.50;;;17.40;60.40;;;;;;5078709;28;20056;-90
2022/10/06 11:40:21;;;;;;;3.60;1.10;;;17.40;59.00;;;;;;5077388;28;20121;-90
2022/10/06 11:42:57;;;;;;;;;;;17.40;60.70;;;;;;5091246;28;20032;-88
2022/10/06 11:45:37;;;;;;;5.63;0.98;;;17.40;57.90;;;;;;5093869;28;19920;-88
2022/10/06 11:48:31;;;;;;;3.70;0.90;;;17.40;59.20;;;;;;5078919;28;20016;-90
2022/10/06 11:51:27;;;;;;;6.85;0.90;;;17.50;59.50;;;;;;5089407;28;20031;-90
2022/10/06 11:53:54;;;;;;;7.25;1.25;;;17.60;58.60;;;;;;5093639;28;20048;-90
2022/10/06 11:56:20;;;;;;;8.00;1.02;;;17.60;59.30;;;;;;5077470;28;20094;-90
2022/10/06 11:58:54;;;;;;;3.83;0.77;;;17.60;59.00;;;;;;5076709;28;20032;-90
2022/10/06 12:01:29;;;;;;;5.13;0.80;;;17.70;59.50;;;;;;5078040;28;20368;-89
2022/10/06 12:04:07;;;;;;;4.85;0.80;;;17.70;58.20;;;;;;5083870;28;20063;-90
2022/10/06 12:09:44;;;;;;;3.17;1.00;;;17.70;57.40;;;;;;5077905;28;20494;-87
2022/10/06 12:12:17;;;;;;;7.68;1.63;;;17.70;56.00;;;;;;5076881;28;20020;-89
2022/10/06 12:15:11;;;;;;;8.07;1.25;;;17.70;55.80;;;;;;5093920;28;20031;-91
2022/10/06 12:17:58;;;;;;;13.35;1.90;;;17.80;56.30;;;;;;5076647;28;20139;-89
2022/10/06 12:20:42;;;;;;;3.05;0.45;;;17.80;55.60;;;;;;5076795;28;20406;-89
2022/10/06 12:23:07;;;;;;;5.70;0.82;;;17.80;53.50;;;;;;5101376;28;20090;-87
2022/10/06 12:25:36;;;;;;;5.57;0.63;;;17.80;53.80;;;;;;5099384;28;20589;-90
2022/10/06 12:28:20;;;;;;;3.42;0.85;;;17.80;52.50;;;;;;5093227;28;20084;-90
2022/10/06 12:30:57;;;;;;;5.32;0.95;;;17.80;53.90;;;;;;5077588;28;20028;-88
2022/10/06 12:33:37;;;;;;;9.05;1.30;;;17.90;54.10;;;;;;5077556;28;20095;-90
2022/10/06 12:36:04;;;;;;;6.85;1.15;;;17.90;53.40;;;;;;5088409;28;20371;-90
2022/10/06 12:38:30;;;;;;;5.45;1.45;;;17.90;54.80;;;;;;5097784;28;20024;-89
2022/10/06 12:40:56;;;;;;;4.40;1.33;;;18.00;53.40;;;;;;5096402;28;20027;-90
2022/10/06 12:43:22;;;;;;;4.60;1.30;;;18.10;54.30;;;;;;5075649;28;20509;-89
2022/10/06 12:46:23;;;;;;;4.85;0.85;;;18.10;53.70;;;;;;5077265;28;20135;-90
2022/10/06 12:48:51;;;;;;;5.07;1.48;;;18.00;53.10;;;;;;5077071;28;20028;-88
2022/10/06 12:51:26;;;;;;;8.40;1.05;;;18.10;54.40;;;;;;5085973;28;20029;-89
2022/10/06 12:54:10;;;;;;;3.63;0.77;;;18.10;53.00;;;;;;5076832;28;20103;-88
2022/10/06 12:56:40;;;;;;;5.72;0.82;;;18.10;53.00;;;;;;5076275;28;20112;-89
2022/10/06 12:59:21;;;;;;;5.20;1.02;;;18.20;52.10;;;;;;5076661;28;20025;-90
2022/10/06 13:01:59;;;;;;;3.83;0.98;;;18.30;53.30;;;;;;5092159;28;20033;-91
2022/10/06 13:04:41;;;;;;;6.95;1.10;;;18.30;52.80;;;;;;5076239;28;20036;-89
2022/10/06 13:07:18;;;;;;;4.90;1.05;;;18.30;53.40;;;;;;5074982;28;20064;-88
2022/10/06 13:09:45;;;;;;;4.05;0.75;;;18.30;51.80;;;;;;5076382;28;20028;-89
2022/10/06 13:12:30;;;;;;;4.88;1.00;;;18.30;52.50;;;;;;5075773;28;20024;-88
2022/10/06 13:15:33;;;;;;;4.72;0.98;;;18.30;53.10;;;;;;5075555;28;20021;-87
2022/10/06 13:18:20;;;;;;;5.00;0.93;;;18.40;52.00;;;;;;5053620;28;20039;-87
2022/10/06 13:20:48;;;;;;;6.00;0.90;;;18.40;52.90;;;;;;5096006;28;20055;-89
2022/10/06 13:23:36;;;;;;;5.35;1.08;;;18.50;54.20;;;;;;5099683;28;20085;-91
2022/10/06 13:26:25;;;;;;;5.20;0.95;;;18.50;52.60;;;;;;5096620;28;20032;-91
2022/10/06 13:28:53;;;;;;;4.55;1.02;;;18.60;53.50;;;;;;5084475;28;20171;-90
2022/10/06 13:31:33;;;;;;;7.10;1.60;;;18.70;53.30;;;;;;5096654;28;20031;-92